Airfield :
LOGIN :

Register | Disclaimer

   EN    FR    IT 

 










Legend :    VFR   Marginal VFR   IFR   Intensive IFR   Very Intensive IFR
Visi :
Ceiling :
>= 8 km
>= 3000ft
5 to 8 km
1000 to 3000 ft
1500m to 5 km
500 to 1000 ft
800 to 1500m
200 to 500 ft
< 800m
< 200 ft
Symbols :   Thunderstorms  Fog  Heavy snow  Heavy precipitations  Wind > 20 kt
SIGMETs :     Misc.  Thunderstorms  Icing  Turbulence  Mountain Waves  Volcanic Ashes






- Airport Elevation : 106 ft
- IATA code : XDA


LFBY - Dax Seyresse

CURRENT METAR :
  • 021300Z AUTO 05005KT 350V090 9999 // ////// 08/04 Q1016

EXPIRED METARs :
  • 021230Z AUTO 07004KT 340V120 9999 // ////// 08/05 Q1016
  • 021200Z AUTO 06005KT 010V090 9999 // ////// 07/04 Q1017
  • 021130Z AUTO 07004KT 040V120 9999 // ////// 08/05 Q1017
  • 021100Z AUTO 09004KT 040V150 9999 // ////// 07/04 Q1018
  • 021030Z AUTO 12003KT 040V160 9999 // ////// 07/05 Q1018

Expired Forecast.



MET'MAP, your aeronautical weather chart ! - Copyright ORBIFLY December 2007 - Disclaimer

ORBIFLY MET'MAP TEAM :

Programming & Development : Alexandra Zaïnal
Original concept : Baudouin d'Aumeries
Technical & hardware support : Manuel Goepfert
Assistance : Marc-Olivier Méhu




SOURCES & CREDITS :

   NOAA